Time;durP1;ratioP1;P1;durP2;ratioP2;P2;SDS_P1;SDS_P2;PMS_P1;PMS_P2;Temp;Humidity;BMP_temperature;BMP_pressure;BME280_temperature;BME280_humidity;BME280_pressure;Samples;Min_cycle;Max_cycle;Signal;HPM_P1;HPM_P2
2024/02/29 00:00:06;;;;;;;18.98;7.43;;;4.80;99.90;;;;;;5040587;28;20025;-64
2024/02/29 00:02:32;;;;;;;16.95;7.05;;;4.80;99.90;;;;;;5045795;28;20104;-62
2024/02/29 00:04:58;;;;;;;18.63;7.05;;;4.70;99.90;;;;;;5045385;28;20104;-65
2024/02/29 00:07:23;;;;;;;20.88;7.85;;;4.70;99.90;;;;;;5040005;28;20115;-62
2024/02/29 00:09:49;;;;;;;17.92;7.43;;;4.70;99.90;;;;;;5039723;28;20462;-62
2024/02/29 00:12:15;;;;;;;18.48;6.65;;;4.70;99.90;;;;;;5038530;28;20040;-63
2024/02/29 00:14:42;;;;;;;17.92;6.97;;;4.70;99.90;;;;;;5040703;28;20040;-63
2024/02/29 00:17:08;;;;;;;22.35;7.65;;;4.70;99.90;;;;;;5039132;28;20484;-62
2024/02/29 00:19:33;;;;;;;16.65;6.38;;;4.80;99.90;;;;;;5042839;28;20029;-63
2024/02/29 00:21:59;;;;;;;17.73;6.95;;;4.80;99.90;;;;;;5039279;28;20401;-63
2024/02/29 00:24:25;;;;;;;19.55;7.32;;;4.80;99.90;;;;;;5047340;28;20257;-63
2024/02/29 00:26:50;;;;;;;17.30;7.75;;;4.80;99.90;;;;;;5038645;28;20476;-62
2024/02/29 00:29:17;;;;;;;19.17;7.65;;;4.80;99.90;;;;;;5040747;28;20663;-63
2024/02/29 00:31:46;;;;;;;21.15;7.25;;;4.80;99.90;;;;;;5038950;28;20107;-62
2024/02/29 00:34:12;;;;;;;18.73;7.60;;;4.80;99.90;;;;;;5040818;28;20038;-63
2024/02/29 00:36:38;;;;;;;18.92;7.45;;;4.80;99.90;;;;;;5042359;28;20021;-63
2024/02/29 00:39:04;;;;;;;21.67;8.13;;;4.80;99.90;;;;;;5042346;28;20033;-62
2024/02/29 00:41:30;;;;;;;18.27;7.55;;;4.70;99.90;;;;;;5039075;28;20025;-62
2024/02/29 00:43:55;;;;;;;19.08;6.82;;;4.70;99.90;;;;;;5040646;28;20082;-62
2024/02/29 00:46:22;;;;;;;19.50;7.55;;;4.60;99.90;;;;;;5039296;28;20425;-63
2024/02/29 00:48:48;;;;;;;18.30;6.85;;;4.60;99.90;;;;;;5040979;28;20048;-62
2024/02/29 00:51:13;;;;;;;20.17;7.75;;;4.60;99.90;;;;;;5040156;28;20096;-62
2024/02/29 00:53:39;;;;;;;22.83;8.73;;;4.50;99.90;;;;;;5037893;28;20026;-62
2024/02/29 00:56:05;;;;;;;18.75;8.65;;;4.50;99.90;;;;;;5039565;28;20033;-63
2024/02/29 00:58:30;;;;;;;18.92;7.00;;;4.50;99.90;;;;;;5038606;28;20084;-64
2024/02/29 01:00:56;;;;;;;20.55;8.13;;;4.40;99.90;;;;;;5042160;28;20017;-63
2024/02/29 01:03:22;;;;;;;17.98;8.05;;;4.40;99.90;;;;;;5039236;28;20033;-63
2024/02/29 01:05:47;;;;;;;21.52;8.48;;;4.40;99.90;;;;;;5041977;28;20078;-63
2024/02/29 01:08:13;;;;;;;23.17;7.93;;;4.30;99.90;;;;;;5035781;28;20017;-62
2024/02/29 01:10:39;;;;;;;18.48;7.50;;;4.20;99.90;;;;;;5041109;28;20029;-63
2024/02/29 01:13:05;;;;;;;25.83;8.68;;;4.20;99.90;;;;;;5042793;28;20432;-63
2024/02/29 01:15:31;;;;;;;19.63;7.03;;;4.10;99.90;;;;;;5041347;28;20032;-63
2024/02/29 01:17:56;;;;;;;17.92;7.90;;;4.10;99.90;;;;;;5038184;28;20168;-64
2024/02/29 01:20:22;;;;;;;21.52;8.10;;;4.10;99.90;;;;;;5040592;28;20036;-63
2024/02/29 01:22:47;;;;;;;19.70;7.60;;;4.00;99.90;;;;;;5038471;28;20045;-63
2024/02/29 01:25:13;;;;;;;19.10;6.82;;;3.80;99.90;;;;;;5038335;28;20021;-63
2024/02/29 01:27:39;;;;;;;19.52;7.53;;;3.80;99.90;;;;;;5037428;28;20362;-63
2024/02/29 01:30:05;;;;;;;22.25;8.23;;;4.00;99.90;;;;;;5041230;28;20453;-63
2024/02/29 01:32:31;;;;;;;18.88;7.45;;;4.00;99.90;;;;;;5039919;28;20428;-63
2024/02/29 01:34:56;;;;;;;18.38;7.70;;;4.00;99.90;;;;;;5040630;28;20098;-63
2024/02/29 01:37:22;;;;;;;20.10;8.00;;;3.90;99.90;;;;;;5041685;28;20152;-63
2024/02/29 01:39:48;;;;;;;19.80;8.00;;;3.90;99.90;;;;;;5040916;28;20075;-62
2024/02/29 01:42:13;;;;;;;21.58;8.40;;;3.90;99.90;;;;;;5038764;28;20025;-62
2024/02/29 01:44:52;;;;;;;18.75;7.75;;;4.00;99.90;;;;;;5039656;28;20028;-63
2024/02/29 01:47:18;;;;;;;20.52;8.07;;;4.10;99.90;;;;;;5043221;28;20396;-63
2024/02/29 01:49:45;;;;;;;22.73;7.30;;;4.10;99.90;;;;;;5039158;28;20017;-63
2024/02/29 01:52:14;;;;;;;21.08;7.68;;;4.10;99.90;;;;;;5039344;28;20024;-62
2024/02/29 01:54:39;;;;;;;15.85;6.38;;;4.10;99.90;;;;;;5038090;28;20535;-63
2024/02/29 01:57:06;;;;;;;22.45;8.52;;;4.10;99.90;;;;;;5037775;28;20108;-63
2024/02/29 01:59:35;;;;;;;18.65;7.53;;;4.10;99.90;;;;;;5037818;28;20053;-62
2024/02/29 02:02:00;;;;;;;18.42;7.47;;;4.20;99.90;;;;;;5041225;28;20044;-63
2024/02/29 02:04:26;;;;;;;18.38;7.10;;;4.20;99.90;;;;;;5040495;28;20018;-62
2024/02/29 02:06:52;;;;;;;18.92;7.75;;;4.20;99.90;;;;;;5037897;28;20437;-63
2024/02/29 02:09:17;;;;;;;22.52;8.02;;;4.20;99.90;;;;;;5040031;28;20025;-62
2024/02/29 02:11:43;;;;;;;20.65;7.85;;;4.20;99.90;;;;;;5038580;28;20037;-63
2024/02/29 02:14:09;;;;;;;22.27;7.57;;;4.20;99.90;;;;;;5039367;28;20077;-63
2024/02/29 02:16:35;;;;;;;20.77;7.93;;;4.30;99.90;;;;;;5039786;28;20017;-63
2024/02/29 02:19:00;;;;;;;19.90;8.32;;;4.20;99.90;;;;;;5038356;28;20101;-63
2024/02/29 02:21:26;;;;;;;21.05;8.10;;;4.30;99.90;;;;;;5040281;28;20033;-62
2024/02/29 02:23:51;;;;;;;20.23;8.00;;;4.20;99.90;;;;;;5036169;28;20725;-62
2024/02/29 02:26:17;;;;;;;18.73;7.25;;;4.20;99.90;;;;;;5035757;28;20022;-63
2024/02/29 02:28:43;;;;;;;19.75;8.30;;;4.20;99.90;;;;;;5040122;28;20052;-63
2024/02/29 02:31:08;;;;;;;15.40;6.07;;;4.20;99.90;;;;;;5037783;28;20053;-62
2024/02/29 02:33:34;;;;;;;18.83;7.70;;;4.20;99.90;;;;;;5040442;28;20084;-62
2024/02/29 02:36:00;;;;;;;18.85;8.00;;;4.30;99.90;;;;;;5045525;28;20040;-63
2024/02/29 02:38:25;;;;;;;27.33;7.20;;;4.20;99.90;;;;;;5039517;28;20025;-63
2024/02/29 02:40:51;;;;;;;23.45;7.85;;;4.20;99.90;;;;;;5044658;28;20521;-63
2024/02/29 02:43:16;;;;;;;16.55;6.55;;;4.20;99.90;;;;;;5039217;28;20034;-63
2024/02/29 02:45:42;;;;;;;20.60;7.43;;;4.20;99.90;;;;;;5043760;28;20018;-63
2024/02/29 02:48:08;;;;;;;18.67;7.38;;;4.20;99.90;;;;;;5037888;28;20120;-63
2024/02/29 02:50:33;;;;;;;17.13;6.43;;;4.20;99.90;;;;;;5039187;28;20025;-63
2024/02/29 02:52:59;;;;;;;18.17;6.78;;;4.30;99.90;;;;;;5040359;28;20036;-63
2024/02/29 02:55:25;;;;;;;18.10;7.22;;;4.30;99.90;;;;;;5042236;28;20037;-63
2024/02/29 02:57:50;;;;;;;17.92;6.93;;;4.30;99.90;;;;;;5043833;28;20384;-63
2024/02/29 03:00:17;;;;;;;19.00;7.72;;;4.30;99.90;;;;;;5040699;28;20033;-64
2024/02/29 03:02:42;;;;;;;18.58;7.40;;;4.30;99.90;;;;;;5044778;28;20026;-63
2024/02/29 03:05:09;;;;;;;18.00;6.30;;;4.30;99.90;;;;;;5043557;28;20032;-63
2024/02/29 03:07:34;;;;;;;15.40;6.70;;;4.20;99.90;;;;;;5040271;28;20034;-63
2024/02/29 03:10:00;;;;;;;19.63;6.90;;;4.20;99.90;;;;;;5043772;28;20025;-63
2024/02/29 03:12:25;;;;;;;19.02;6.18;;;4.20;99.90;;;;;;5043978;28;20109;-63
2024/02/29 03:14:51;;;;;;;17.35;7.05;;;4.20;99.90;;;;;;5040345;28;20659;-63
2024/02/29 03:17:18;;;;;;;17.13;6.30;;;4.30;99.90;;;;;;5042068;28;20067;-63
2024/02/29 03:19:43;;;;;;;17.95;6.53;;;4.20;99.90;;;;;;5041339;28;20060;-63
2024/02/29 03:22:09;;;;;;;14.25;5.60;;;4.30;99.90;;;;;;5043918;28;20056;-63
2024/02/29 03:24:44;;;;;;;14.00;5.22;;;4.30;99.90;;;;;;5041156;28;20025;-63
2024/02/29 03:27:11;;;;;;;26.10;6.28;;;4.30;99.90;;;;;;5042891;28;20079;-63
2024/02/29 03:29:36;;;;;;;15.50;5.93;;;4.40;99.90;;;;;;5039350;28;20039;-63
2024/02/29 03:32:02;;;;;;;16.40;6.50;;;4.40;99.90;;;;;;5040718;28;20033;-63
2024/02/29 03:34:27;;;;;;;17.60;6.15;;;4.40;99.90;;;;;;5041928;28;20614;-63
2024/02/29 03:36:53;;;;;;;15.52;5.70;;;4.40;99.90;;;;;;5044378;28;20029;-63
2024/02/29 03:39:19;;;;;;;19.33;6.68;;;4.40;99.90;;;;;;5039427;28;20480;-63
2024/02/29 03:41:44;;;;;;;15.57;6.15;;;4.40;99.90;;;;;;5043540;28;20111;-64
2024/02/29 03:44:10;;;;;;;13.70;5.50;;;4.50;99.90;;;;;;5039506;28;20088;-63
2024/02/29 03:46:36;;;;;;;14.85;5.30;;;4.50;99.90;;;;;;5037712;28;20602;-63
2024/02/29 03:49:01;;;;;;;14.38;5.35;;;4.50;99.90;;;;;;5041243;28;20022;-64
2024/02/29 03:51:27;;;;;;;14.50;5.93;;;4.60;99.90;;;;;;5039847;28;20108;-63
2024/02/29 03:53:53;;;;;;;19.10;6.43;;;4.50;99.90;;;;;;5039140;28;20377;-64
2024/02/29 03:56:18;;;;;;;17.15;5.95;;;4.60;99.90;;;;;;5041875;28;20030;-64
2024/02/29 03:58:44;;;;;;;15.25;6.18;;;4.60;99.90;;;;;;5043495;28;20049;-64
2024/02/29 04:01:12;;;;;;;15.73;5.97;;;4.60;99.90;;;;;;5042352;28;20021;-64
2024/02/29 04:03:39;;;;;;;17.38;5.97;;;4.60;99.90;;;;;;5038286;28;20106;-63
2024/02/29 04:06:06;;;;;;;16.08;5.57;;;4.50;99.90;;;;;;5042998;28;20033;-63
2024/02/29 04:08:32;;;;;;;12.05;4.97;;;4.50;99.90;;;;;;5040243;28;20024;-63
2024/02/29 04:10:58;;;;;;;15.15;5.80;;;4.40;99.90;;;;;;5041860;28;20025;-65
2024/02/29 04:13:24;;;;;;;16.42;6.28;;;4.40;99.90;;;;;;5040914;28;20052;-64
2024/02/29 04:15:50;;;;;;;14.82;5.78;;;4.40;99.90;;;;;;5039491;28;20039;-64
2024/02/29 04:18:16;;;;;;;20.58;6.68;;;4.40;99.90;;;;;;5038987;28;20025;-64
2024/02/29 04:20:42;;;;;;;19.90;5.65;;;4.40;99.90;;;;;;5038938;28;20033;-64
2024/02/29 04:23:07;;;;;;;16.38;6.50;;;4.40;99.90;;;;;;5040799;28;20036;-63
2024/02/29 04:25:33;;;;;;;15.35;5.88;;;4.40;99.90;;;;;;5041405;28;20432;-64
2024/02/29 04:27:59;;;;;;;16.15;6.15;;;4.40;99.90;;;;;;5043908;28;20064;-63
2024/02/29 04:30:24;;;;;;;16.63;5.60;;;4.30;99.90;;;;;;5040562;28;20017;-63
2024/02/29 04:32:50;;;;;;;13.30;5.50;;;4.30;99.90;;;;;;5039783;28;20039;-63
2024/02/29 04:35:16;;;;;;;16.00;5.60;;;4.40;99.90;;;;;;5040594;28;20028;-63
2024/02/29 04:37:42;;;;;;;17.58;6.50;;;4.40;99.90;;;;;;5042677;28;20075;-63
2024/02/29 04:40:10;;;;;;;14.38;5.25;;;4.40;99.90;;;;;;5040717;28;20029;-63
2024/02/29 04:42:35;;;;;;;18.63;6.03;;;4.40;99.90;;;;;;5038820;28;20018;-63
2024/02/29 04:45:01;;;;;;;13.20;5.45;;;4.40;99.90;;;;;;5041102;28;20030;-63
2024/02/29 04:47:27;;;;;;;14.48;5.20;;;4.30;99.90;;;;;;5046879;28;20029;-64
2024/02/29 04:49:53;;;;;;;16.25;6.10;;;4.40;99.90;;;;;;5040028;28;20423;-63
2024/02/29 04:52:18;;;;;;;15.90;6.35;;;4.40;99.90;;;;;;5040651;28;20611;-63
2024/02/29 04:54:44;;;;;;;17.40;6.60;;;4.40;99.90;;;;;;5036224;28;20037;-63
2024/02/29 04:57:09;;;;;;;13.50;4.88;;;4.40;99.90;;;;;;5040675;28;20036;-63
2024/02/29 04:59:35;;;;;;;16.95;5.60;;;4.40;99.90;;;;;;5037943;28;20041;-63
2024/02/29 05:02:01;;;;;;;14.70;5.25;;;4.40;99.90;;;;;;5040586;28;20033;-63
2024/02/29 05:04:26;;;;;;;14.70;5.65;;;4.40;99.90;;;;;;5039084;28;20025;-63
2024/02/29 05:06:53;;;;;;;17.67;5.60;;;4.30;99.90;;;;;;5036692;28;20049;-63
2024/02/29 05:09:19;;;;;;;15.20;5.32;;;4.30;99.90;;;;;;5037490;28;20086;-63
2024/02/29 05:11:45;;;;;;;19.05;5.63;;;4.30;99.90;;;;;;5037671;28;20037;-65
2024/02/29 05:14:11;;;;;;;13.93;5.28;;;4.30;99.90;;;;;;5050595;28;20037;-63
2024/02/29 05:16:36;;;;;;;16.45;5.90;;;4.20;99.90;;;;;;5039824;28;20028;-63
2024/02/29 05:19:02;;;;;;;15.80;6.82;;;4.20;99.90;;;;;;5046614;28;20047;-63
2024/02/29 05:21:27;;;;;;;13.52;5.15;;;4.20;99.90;;;;;;5045662;28;20545;-63
2024/02/29 05:23:53;;;;;;;18.58;6.18;;;4.30;99.90;;;;;;5046554;28;20032;-63
2024/02/29 05:26:19;;;;;;;14.77;5.00;;;4.30;99.90;;;;;;5042389;28;20051;-63
2024/02/29 05:28:45;;;;;;;15.70;6.13;;;4.30;99.90;;;;;;5041350;28;20021;-63
2024/02/29 05:31:11;;;;;;;16.10;5.13;;;4.30;99.90;;;;;;5044481;28;20029;-64
2024/02/29 05:33:37;;;;;;;15.07;5.65;;;4.30;99.90;;;;;;5037295;28;20472;-63
2024/02/29 05:36:03;;;;;;;14.10;6.15;;;4.30;99.90;;;;;;5036008;28;20013;-63
2024/02/29 05:38:29;;;;;;;17.67;6.97;;;4.30;99.90;;;;;;5033333;28;20047;-63
2024/02/29 05:40:57;;;;;;;14.40;5.47;;;4.40;99.90;;;;;;5035945;28;20013;-64
2024/02/29 05:43:23;;;;;;;15.75;6.47;;;4.40;99.90;;;;;;5031852;28;20449;-64
2024/02/29 05:45:49;;;;;;;14.75;4.53;;;4.40;99.90;;;;;;5034695;28;20408;-64
2024/02/29 05:48:15;;;;;;;15.43;5.88;;;4.40;99.90;;;;;;5038854;28;20033;-63
2024/02/29 05:50:41;;;;;;;12.95;4.85;;;4.50;99.90;;;;;;5032149;28;20099;-64
2024/02/29 05:53:07;;;;;;;13.60;4.88;;;4.50;99.90;;;;;;5032920;28;20121;-64
2024/02/29 05:55:32;;;;;;;14.40;6.03;;;4.40;99.90;;;;;;5036134;28;20030;-64
2024/02/29 05:57:58;;;;;;;14.40;4.80;;;4.40;99.90;;;;;;5035649;28;20547;-64
2024/02/29 06:00:23;;;;;;;16.55;5.60;;;4.40;99.90;;;;;;5032581;28;20025;-64
2024/02/29 06:02:49;;;;;;;10.15;4.55;;;4.40;99.90;;;;;;5036858;28;20068;-63
2024/02/29 06:05:15;;;;;;;16.05;5.85;;;4.40;99.90;;;;;;5039162;28;20036;-65
2024/02/29 06:07:40;;;;;;;14.30;5.30;;;4.40;99.90;;;;;;5040283;28;20064;-64
2024/02/29 06:10:10;;;;;;;10.75;4.72;;;4.40;99.90;;;;;;5042560;28;20373;-63
2024/02/29 06:12:36;;;;;;;10.07;4.30;;;4.40;99.90;;;;;;5037858;28;20021;-65
2024/02/29 06:15:02;;;;;;;11.63;4.40;;;4.60;99.90;;;;;;5040669;28;20051;-64
2024/02/29 06:17:28;;;;;;;11.85;4.03;;;4.60;99.90;;;;;;5047666;28;20526;-64
2024/02/29 06:19:54;;;;;;;12.45;4.63;;;4.60;99.90;;;;;;5039577;28;20022;-64
2024/02/29 06:22:22;;;;;;;12.02;4.15;;;4.60;99.90;;;;;;5043604;28;20146;-64
2024/02/29 06:24:51;;;;;;;14.27;5.55;;;4.60;99.90;;;;;;5039061;28;20018;-64
2024/02/29 06:27:17;;;;;;;10.70;4.15;;;4.60;99.90;;;;;;5037302;28;20112;-64
2024/02/29 06:29:43;;;;;;;13.55;4.75;;;4.60;99.90;;;;;;5037511;28;20495;-64
2024/02/29 06:32:08;;;;;;;11.02;4.03;;;4.60;99.90;;;;;;5041371;28;20021;-64
2024/02/29 06:34:34;;;;;;;10.52;4.00;;;4.60;99.90;;;;;;5040392;28;20131;-64
2024/02/29 06:37:00;;;;;;;12.00;4.20;;;4.60;99.90;;;;;;5041374;28;20721;-64
2024/02/29 06:39:26;;;;;;;10.57;3.95;;;4.70;99.90;;;;;;5037018;28;20022;-64
2024/02/29 06:41:52;;;;;;;10.20;4.00;;;4.70;99.90;;;;;;5039519;28;20711;-64
2024/02/29 06:44:17;;;;;;;12.00;4.38;;;4.80;99.90;;;;;;5039078;28;20533;-64
2024/02/29 06:46:43;;;;;;;10.57;4.35;;;4.80;99.90;;;;;;5036447;28;20147;-64
2024/02/29 06:49:09;;;;;;;11.07;3.55;;;4.80;99.90;;;;;;5043074;28;20024;-64
2024/02/29 06:51:35;;;;;;;11.88;4.78;;;4.80;99.90;;;;;;5036116;28;20083;-63
2024/02/29 06:54:02;;;;;;;12.88;4.50;;;4.90;99.90;;;;;;5039969;28;20108;-64
2024/02/29 06:56:28;;;;;;;10.23;3.95;;;4.90;99.90;;;;;;5041198;28;20029;-64
2024/02/29 06:58:53;;;;;;;11.05;4.30;;;5.00;99.90;;;;;;5037423;28;20035;-64
2024/02/29 07:01:19;;;;;;;12.73;4.32;;;5.00;99.90;;;;;;5042533;28;20032;-64
2024/02/29 07:03:47;;;;;;;11.95;3.75;;;5.00;99.90;;;;;;5040256;28;20016;-64
2024/02/29 07:06:13;;;;;;;12.88;4.45;;;5.10;99.90;;;;;;5041785;28;20027;-64
2024/02/29 07:08:38;;;;;;;12.50;4.20;;;5.10;99.90;;;;;;5037223;28;20120;-64
2024/02/29 07:11:04;;;;;;;11.65;4.18;;;5.10;99.90;;;;;;5038001;28;20029;-64
2024/02/29 07:13:30;;;;;;;13.13;4.95;;;5.20;99.90;;;;;;5038802;28;20057;-63
2024/02/29 07:15:56;;;;;;;13.07;4.15;;;5.20;99.90;;;;;;5040176;28;20024;-64
2024/02/29 07:18:23;;;;;;;12.50;4.57;;;5.20;99.90;;;;;;5037703;28;20033;-64
2024/02/29 07:20:49;;;;;;;13.40;5.07;;;5.30;99.90;;;;;;5038938;28;20349;-64
2024/02/29 07:23:15;;;;;;;11.52;4.07;;;5.30;99.90;;;;;;5038664;28;20030;-65
2024/02/29 07:25:41;;;;;;;11.07;3.72;;;5.40;99.90;;;;;;5038724;28;20034;-63
2024/02/29 07:28:07;;;;;;;11.05;4.40;;;5.40;99.90;;;;;;5040850;28;20025;-64
2024/02/29 07:30:32;;;;;;;11.02;3.92;;;5.40;99.90;;;;;;5040173;28;20025;-64
2024/02/29 07:32:58;;;;;;;13.73;4.00;;;5.40;99.90;;;;;;5043621;28;20025;-64
2024/02/29 07:35:25;;;;;;;10.98;4.40;;;5.50;99.90;;;;;;5039438;28;20043;-65
2024/02/29 07:37:52;;;;;;;14.13;5.45;;;5.50;99.90;;;;;;5042872;28;20090;-64
2024/02/29 07:40:17;;;;;;;9.20;3.75;;;5.60;99.90;;;;;;5039612;28;20041;-63
2024/02/29 07:42:43;;;;;;;12.73;3.80;;;5.60;99.90;;;;;;5039818;28;20021;-64
2024/02/29 07:45:09;;;;;;;8.48;3.13;;;5.60;99.90;;;;;;5035439;28;20026;-64
2024/02/29 07:47:35;;;;;;;11.80;3.60;;;5.60;99.90;;;;;;5039949;28;20025;-62
2024/02/29 07:50:05;;;;;;;10.80;3.78;;;5.70;99.90;;;;;;5039784;28;20040;-62
2024/02/29 07:52:31;;;;;;;11.68;3.88;;;5.80;99.90;;;;;;5039435;28;20052;-62
2024/02/29 07:54:57;;;;;;;10.23;3.67;;;5.80;99.90;;;;;;5041913;28;20033;-62
2024/02/29 07:57:22;;;;;;;8.38;3.38;;;5.90;99.90;;;;;;5040193;28;20044;-63
2024/02/29 07:59:48;;;;;;;8.23;3.10;;;6.00;99.60;;;;;;5039077;28;20032;-63
2024/02/29 08:02:13;;;;;;;7.65;2.83;;;6.10;98.80;;;;;;5044804;28;20111;-63
2024/02/29 08:04:39;;;;;;;9.85;3.60;;;6.20;98.40;;;;;;5039684;28;20017;-64
2024/02/29 08:07:06;;;;;;;12.05;3.45;;;6.30;97.30;;;;;;5043431;28;20036;-63
2024/02/29 08:09:34;;;;;;;8.07;2.58;;;6.40;98.00;;;;;;5043070;28;20028;-63
2024/02/29 08:12:00;;;;;;;7.72;2.63;;;6.50;96.90;;;;;;5042295;28;20790;-63
2024/02/29 08:14:26;;;;;;;6.97;2.50;;;6.50;96.50;;;;;;5042044;28;20128;-62
2024/02/29 08:16:51;;;;;;;8.43;2.92;;;6.60;96.10;;;;;;5042453;28;20033;-64
2024/02/29 08:19:17;;;;;;;8.30;2.90;;;6.70;95.40;;;;;;5041428;28;20138;-63
2024/02/29 08:21:43;;;;;;;7.35;2.40;;;6.80;95.70;;;;;;5041081;28;20495;-62
2024/02/29 08:24:08;;;;;;;7.90;2.92;;;6.90;95.70;;;;;;5038934;28;20029;-63
2024/02/29 08:26:34;;;;;;;11.30;3.10;;;7.00;94.80;;;;;;5041200;28;20033;-63
2024/02/29 08:28:59;;;;;;;8.60;2.42;;;7.10;93.90;;;;;;5040749;28;20053;-63
2024/02/29 08:31:25;;;;;;;7.32;2.60;;;7.20;93.10;;;;;;5035067;28;20128;-61
2024/02/29 08:33:51;;;;;;;9.25;2.63;;;7.20;93.30;;;;;;5040513;28;20032;-63
2024/02/29 08:36:17;;;;;;;7.53;2.45;;;7.30;93.00;;;;;;5036084;28;20020;-63
2024/02/29 08:38:42;;;;;;;7.95;2.60;;;7.30;92.60;;;;;;5043382;28;20040;-63
2024/02/29 08:41:08;;;;;;;8.68;2.30;;;7.50;92.10;;;;;;5040326;28;20112;-62
2024/02/29 08:43:33;;;;;;;6.57;2.33;;;7.60;90.80;;;;;;5045867;28;20040;-61
2024/02/29 08:45:59;;;;;;;6.97;2.63;;;7.80;91.10;;;;;;5039616;28;20505;-62
2024/02/29 08:48:25;;;;;;;7.78;2.30;;;8.00;89.10;;;;;;5039067;28;20033;-61
2024/02/29 08:50:50;;;;;;;7.53;2.33;;;8.20;87.60;;;;;;5041533;28;20477;-61
2024/02/29 08:53:16;;;;;;;6.28;2.20;;;8.40;86.00;;;;;;5041977;28;20790;-62
2024/02/29 08:55:42;;;;;;;8.25;2.50;;;8.70;86.90;;;;;;5045354;28;20682;-61
2024/02/29 08:58:10;;;;;;;5.95;1.83;;;8.90;87.00;;;;;;5040317;28;20032;-62
2024/02/29 09:00:35;;;;;;;7.20;2.58;;;9.10;86.40;;;;;;5041311;28;20552;-62
2024/02/29 09:03:01;;;;;;;8.75;2.40;;;9.40;79.30;;;;;;5038874;28;20188;-62
2024/02/29 09:05:27;;;;;;;7.57;2.25;;;9.70;79.60;;;;;;5042168;28;20111;-62
2024/02/29 09:07:52;;;;;;;7.53;2.47;;;9.90;79.40;;;;;;5038876;28;20017;-62
2024/02/29 09:10:18;;;;;;;6.03;2.00;;;10.10;79.20;;;;;;5039248;28;20057;-62
2024/02/29 09:12:44;;;;;;;7.40;2.33;;;10.30;76.70;;;;;;5044322;28;20404;-63
2024/02/29 09:15:10;;;;;;;7.00;2.33;;;10.30;77.10;;;;;;5042237;28;20041;-62
2024/02/29 09:17:35;;;;;;;6.93;1.98;;;10.50;74.10;;;;;;5042755;28;20048;-63
2024/02/29 09:20:02;;;;;;;6.90;2.47;;;10.50;75.90;;;;;;5039189;28;20456;-63
2024/02/29 09:22:27;;;;;;;8.80;2.22;;;10.50;75.70;;;;;;5037167;28;20029;-61
2024/02/29 09:24:53;;;;;;;7.03;2.30;;;10.50;77.00;;;;;;5038819;28;20586;-61
2024/02/29 09:27:19;;;;;;;6.07;2.00;;;10.70;75.70;;;;;;5043396;28;20036;-61
2024/02/29 09:29:44;;;;;;;8.00;2.65;;;10.80;74.70;;;;;;5037872;28;20572;-64
2024/02/29 09:32:10;;;;;;;6.78;2.13;;;11.10;75.10;;;;;;5041003;28;20079;-61
2024/02/29 09:34:37;;;;;;;6.40;2.20;;;11.10;74.30;;;;;;5042414;28;20065;-63
2024/02/29 09:37:04;;;;;;;7.05;2.13;;;11.00;76.30;;;;;;5043979;28;20032;-61
2024/02/29 09:39:29;;;;;;;7.63;2.78;;;10.70;77.20;;;;;;5040640;28;20136;-61
2024/02/29 09:41:55;;;;;;;6.90;2.72;;;10.40;79.40;;;;;;5042218;28;20037;-62
2024/02/29 09:44:21;;;;;;;8.43;2.55;;;10.20;80.70;;;;;;5040930;28;20049;-62
2024/02/29 09:46:50;;;;;;;5.63;2.00;;;10.00;79.70;;;;;;5043639;28;20029;-61
2024/02/29 09:49:16;;;;;;;8.77;3.00;;;9.90;82.90;;;;;;5034673;28;20026;-62
2024/02/29 09:51:43;;;;;;;7.50;2.65;;;9.80;82.80;;;;;;5043381;28;20025;-62
2024/02/29 09:54:16;;;;;;;7.88;2.15;;;9.80;82.50;;;;;;5037490;28;20420;-62
2024/02/29 09:56:42;;;;;;;6.70;2.40;;;9.80;84.20;;;;;;5041821;28;20507;-62
2024/02/29 09:59:12;;;;;;;7.15;2.05;;;10.10;82.20;;;;;;5042129;28;20053;-62
2024/02/29 10:01:39;;;;;;;10.57;2.92;;;10.30;80.70;;;;;;5042836;28;20368;-62
2024/02/29 10:04:06;;;;;;;8.95;2.42;;;10.40;81.60;;;;;;5039678;28;20029;-62
2024/02/29 10:06:32;;;;;;;7.63;2.83;;;10.60;79.40;;;;;;5037069;28;20040;-62
2024/02/29 10:08:58;;;;;;;6.97;2.47;;;11.00;78.60;;;;;;5040599;28;20021;-63
2024/02/29 10:11:28;;;;;;;6.40;2.30;;;11.40;76.80;;;;;;5039712;28;20488;-63
2024/02/29 10:13:53;;;;;;;8.18;2.53;;;11.80;75.90;;;;;;5042151;28;20045;-63
2024/02/29 10:16:19;;;;;;;7.05;2.50;;;11.90;75.40;;;;;;5037486;28;20109;-63
2024/02/29 10:18:45;;;;;;;7.10;2.10;;;12.30;72.80;;;;;;5038440;28;20017;-63
2024/02/29 10:21:15;;;;;;;7.05;2.70;;;12.30;74.80;;;;;;5043479;28;20134;-63
2024/02/29 10:23:42;;;;;;;5.63;2.17;;;12.30;74.30;;;;;;5039309;28;20025;-63
2024/02/29 10:26:08;;;;;;;6.53;2.13;;;12.20;74.50;;;;;;5045838;28;20040;-63
2024/02/29 10:28:34;;;;;;;6.93;2.20;;;11.80;78.80;;;;;;5041118;28;20021;-63
2024/02/29 10:31:01;;;;;;;6.85;2.30;;;11.50;76.20;;;;;;5042614;28;20032;-63
2024/02/29 10:33:30;;;;;;;8.20;2.50;;;11.10;78.80;;;;;;5044021;28;20488;-61
2024/02/29 10:35:56;;;;;;;6.47;2.38;;;10.90;79.20;;;;;;5037607;28;20033;-63
2024/02/29 10:38:22;;;;;;;6.80;2.30;;;10.90;82.70;;;;;;5036774;28;20025;-64
2024/02/29 10:40:58;;;;;;;19.55;2.50;;;11.00;82.40;;;;;;5040632;28;20036;-64
2024/02/29 10:43:30;;;;;;;6.70;2.20;;;11.10;82.20;;;;;;5044123;28;20509;-64
2024/02/29 10:45:58;;;;;;;10.27;2.75;;;11.10;81.30;;;;;;5046050;28;20159;-62
2024/02/29 10:48:57;;;;;;;8.07;2.50;;;10.90;83.00;;;;;;5042375;28;20040;-62
2024/02/29 10:51:23;;;;;;;8.02;2.53;;;10.80;83.20;;;;;;5032948;28;20030;-63
2024/02/29 10:54:16;;;;;;;7.65;2.38;;;10.90;86.40;;;;;;5040391;28;20147;-64
2024/02/29 10:56:44;;;;;;;9.27;2.88;;;11.10;85.20;;;;;;5048414;28;20036;-64
2024/02/29 10:59:14;;;;;;;8.07;2.85;;;11.10;82.80;;;;;;5047968;28;20362;-62
2024/02/29 11:01:40;;;;;;;9.05;2.95;;;11.10;86.70;;;;;;5046626;28;20029;-63
2024/02/29 11:04:06;;;;;;;6.28;2.30;;;11.30;85.90;;;;;;5044733;28;20029;-63
2024/02/29 11:06:47;;;;;;;6.75;2.50;;;11.50;85.30;;;;;;5048346;28;20112;-62
2024/02/29 11:09:20;;;;;;;7.10;2.50;;;11.60;85.60;;;;;;5047814;28;20025;-63
2024/02/29 11:11:47;;;;;;;7.13;2.55;;;11.60;85.00;;;;;;5044434;28;20464;-64
2024/02/29 11:14:15;;;;;;;6.85;2.30;;;11.70;85.80;;;;;;5042305;28;20043;-64
2024/02/29 11:16:43;;;;;;;9.02;2.90;;;11.80;86.80;;;;;;5044201;28;20116;-64
2024/02/29 11:19:13;;;;;;;7.25;2.00;;;11.80;84.80;;;;;;5047471;28;20107;-62
2024/02/29 11:21:39;;;;;;;7.35;2.30;;;11.80;85.30;;;;;;5039901;28;20079;-64
2024/02/29 11:24:06;;;;;;;9.68;2.50;;;11.70;86.30;;;;;;5043612;28;20025;-64
2024/02/29 11:26:33;;;;;;;6.78;2.30;;;11.60;86.80;;;;;;5047050;28;20040;-62
2024/02/29 11:29:10;;;;;;;8.73;2.67;;;11.50;88.10;;;;;;5042357;28;20048;-63
2024/02/29 11:31:47;;;;;;;8.45;2.33;;;11.50;88.80;;;;;;5046920;28;20531;-62
2024/02/29 11:34:16;;;;;;;8.65;2.60;;;11.50;87.10;;;;;;5045976;28;20484;-63
2024/02/29 11:36:47;;;;;;;10.75;2.45;;;11.50;89.90;;;;;;5047117;28;20060;-63
2024/02/29 11:39:22;;;;;;;8.13;2.30;;;11.60;88.80;;;;;;5047512;28;20066;-62
2024/02/29 11:42:02;;;;;;;7.88;2.53;;;11.80;87.60;;;;;;5042791;28;20427;-62
2024/02/29 11:44:28;;;;;;;6.60;2.20;;;12.00;86.90;;;;;;5040645;28;20389;-63
2024/02/29 11:46:54;;;;;;;6.18;2.25;;;12.10;87.70;;;;;;5043521;28;20033;-63
2024/02/29 11:49:21;;;;;;;7.00;2.78;;;12.30;85.40;;;;;;5044899;28;20573;-64
2024/02/29 11:51:47;;;;;;;7.03;2.35;;;12.30;83.10;;;;;;5042040;28;20021;-63
2024/02/29 11:54:14;;;;;;;7.43;2.22;;;12.40;86.70;;;;;;5037255;28;20021;-63
2024/02/29 11:56:40;;;;;;;6.45;2.15;;;12.50;85.60;;;;;;5044922;28;20040;-64
2024/02/29 11:59:09;;;;;;;8.27;2.85;;;12.70;84.20;;;;;;5043229;28;20016;-64
2024/02/29 12:01:35;;;;;;;7.25;2.40;;;12.80;83.70;;;;;;5053219;28;20037;-64
2024/02/29 12:04:01;;;;;;;7.32;2.25;;;12.80;84.40;;;;;;5045778;28;20029;-64
2024/02/29 12:06:27;;;;;;;5.82;2.17;;;12.80;83.40;;;;;;5039843;28;20035;-63
2024/02/29 12:08:54;;;;;;;8.80;2.63;;;12.70;83.10;;;;;;5038357;28;20033;-63
2024/02/29 12:11:20;;;;;;;6.90;1.90;;;12.50;83.50;;;;;;5047234;28;20032;-64
2024/02/29 12:13:46;;;;;;;5.32;1.95;;;12.50;84.20;;;;;;5039766;28;20041;-63
2024/02/29 12:16:13;;;;;;;8.98;2.88;;;12.30;85.10;;;;;;5039135;28;20388;-63
2024/02/29 12:18:38;;;;;;;6.35;2.22;;;12.20;85.00;;;;;;5038384;28;20029;-64
2024/02/29 12:21:04;;;;;;;6.97;2.30;;;12.20;85.30;;;;;;5033805;28;20060;-64
2024/02/29 12:23:34;;;;;;;6.45;2.00;;;12.10;89.60;;;;;;5033420;28;20103;-63
2024/02/29 12:26:26;;;;;;;6.60;2.30;;;12.10;88.60;;;;;;5037668;28;20025;-63
2024/02/29 12:28:52;;;;;;;7.07;2.10;;;12.10;87.80;;;;;;5040046;28;20614;-63
2024/02/29 12:31:18;;;;;;;7.78;2.45;;;12.00;87.00;;;;;;5048046;28;20021;-63
2024/02/29 12:33:46;;;;;;;6.38;2.03;;;12.00;84.60;;;;;;5042285;28;20048;-63
2024/02/29 12:36:13;;;;;;;6.53;2.20;;;12.10;87.20;;;;;;5046951;28;20412;-65
2024/02/29 12:38:43;;;;;;;4.88;1.70;;;12.30;85.00;;;;;;5039158;28;20029;-65
2024/02/29 12:41:09;;;;;;;6.03;2.10;;;12.60;82.60;;;;;;5036184;28;20021;-63
2024/02/29 12:43:38;;;;;;;5.50;1.70;;;13.20;78.70;;;;;;5044857;28;20044;-64